sensor_id;sensor_type;location;lat;lon;timestamp;pressure;altitude;pressure_sealevel;temperature;humidity
41102;BME280;26845;50.190;19.178;2023-06-14T00:00:36;98614.02;;;10.32;70.05
41102;BME280;26845;50.190;19.178;2023-06-14T00:03:10;98608.78;;;10.30;70.03
41102;BME280;26845;50.190;19.178;2023-06-14T00:05:43;98609.95;;;10.30;69.94
41102;BME280;26845;50.190;19.178;2023-06-14T00:08:17;98607.16;;;10.28;70.05
41102;BME280;26845;50.190;19.178;2023-06-14T00:10:50;98605.69;;;10.25;70.07
41102;BME280;26845;50.190;19.178;2023-06-14T00:13:24;98605.92;;;10.26;70.26
41102;BME280;26845;50.190;19.178;2023-06-14T00:15:58;98604.80;;;10.27;70.31
41102;BME280;26845;50.190;19.178;2023-06-14T00:18:31;98605.60;;;10.29;70.49
41102;BME280;26845;50.190;19.178;2023-06-14T00:21:05;98610.58;;;10.28;70.65
41102;BME280;26845;50.190;19.178;2023-06-14T00:23:39;98610.15;;;10.27;70.64
41102;BME280;26845;50.190;19.178;2023-06-14T00:26:12;98607.52;;;10.24;70.44
41102;BME280;26845;50.190;19.178;2023-06-14T00:28:46;98604.75;;;10.20;70.37
41102;BME280;26845;50.190;19.178;2023-06-14T00:31:20;98605.70;;;10.18;70.32
41102;BME280;26845;50.190;19.178;2023-06-14T00:33:53;98601.78;;;10.15;70.21
41102;BME280;26845;50.190;19.178;2023-06-14T00:36:28;98603.09;;;10.11;70.25
41102;BME280;26845;50.190;19.178;2023-06-14T00:39:01;98603.23;;;10.08;70.22
41102;BME280;26845;50.190;19.178;2023-06-14T00:41:34;98604.90;;;10.06;70.68
41102;BME280;26845;50.190;19.178;2023-06-14T00:44:08;98600.55;;;10.03;70.59
41102;BME280;26845;50.190;19.178;2023-06-14T00:46:42;98601.76;;;9.99;70.64
41102;BME280;26845;50.190;19.178;2023-06-14T00:49:15;98602.94;;;9.92;70.47
41102;BME280;26845;50.190;19.178;2023-06-14T00:51:49;98599.08;;;9.89;70.48
41102;BME280;26845;50.190;19.178;2023-06-14T00:54:23;98596.29;;;9.85;70.40
41102;BME280;26845;50.190;19.178;2023-06-14T00:56:56;98598.52;;;9.81;70.29
41102;BME280;26845;50.190;19.178;2023-06-14T00:59:30;98600.94;;;9.77;70.47
41102;BME280;26845;50.190;19.178;2023-06-14T01:02:04;98598.64;;;9.73;70.55
41102;BME280;26845;50.190;19.178;2023-06-14T01:04:38;98601.88;;;9.73;70.77
41102;BME280;26845;50.190;19.178;2023-06-14T01:07:13;98596.78;;;9.72;70.94
41102;BME280;26845;50.190;19.178;2023-06-14T01:09:53;98591.56;;;9.72;70.93
41102;BME280;26845;50.190;19.178;2023-06-14T01:12:29;98584.88;;;9.74;70.91
41102;BME280;26845;50.190;19.178;2023-06-14T01:14:59;98582.64;;;9.74;71.04
41102;BME280;26845;50.190;19.178;2023-06-14T01:17:32;98583.05;;;9.78;71.43
41102;BME280;26845;50.190;19.178;2023-06-14T01:20:06;98582.53;;;9.83;71.81
41102;BME280;26845;50.190;19.178;2023-06-14T01:22:52;98572.10;;;9.87;71.96
41102;BME280;26845;50.190;19.178;2023-06-14T01:25:25;98572.27;;;9.90;71.93
41102;BME280;26845;50.190;19.178;2023-06-14T01:28:00;98571.89;;;9.92;71.80
41102;BME280;26845;50.190;19.178;2023-06-14T01:30:33;98571.12;;;9.91;71.65
41102;BME280;26845;50.190;19.178;2023-06-14T01:33:06;98573.84;;;9.90;71.54
41102;BME280;26845;50.190;19.178;2023-06-14T01:35:44;98574.34;;;9.85;71.42
41102;BME280;26845;50.190;19.178;2023-06-14T01:38:18;98572.62;;;9.80;71.23
41102;BME280;26845;50.190;19.178;2023-06-14T01:40:51;98574.92;;;9.74;71.15
41102;BME280;26845;50.190;19.178;2023-06-14T01:43:24;98575.59;;;9.70;71.57
41102;BME280;26845;50.190;19.178;2023-06-14T01:45:58;98579.70;;;9.70;71.83
41102;BME280;26845;50.190;19.178;2023-06-14T01:48:32;98578.63;;;9.71;72.04
41102;BME280;26845;50.190;19.178;2023-06-14T01:51:05;98576.84;;;9.71;72.21
41102;BME280;26845;50.190;19.178;2023-06-14T01:53:39;98575.27;;;9.71;72.31
41102;BME280;26845;50.190;19.178;2023-06-14T01:56:13;98574.18;;;9.73;72.44
41102;BME280;26845;50.190;19.178;2023-06-14T01:58:46;98572.26;;;9.75;72.49
41102;BME280;26845;50.190;19.178;2023-06-14T02:01:20;98568.77;;;9.76;72.60
41102;BME280;26845;50.190;19.178;2023-06-14T02:03:54;98571.25;;;9.75;72.62
41102;BME280;26845;50.190;19.178;2023-06-14T02:06:27;98572.21;;;9.69;72.69
41102;BME280;26845;50.190;19.178;2023-06-14T02:09:01;98573.43;;;9.67;72.85
41102;BME280;26845;50.190;19.178;2023-06-14T02:11:35;98570.39;;;9.69;73.18
41102;BME280;26845;50.190;19.178;2023-06-14T02:14:09;98572.92;;;9.72;73.14
41102;BME280;26845;50.190;19.178;2023-06-14T02:16:43;98577.55;;;9.76;73.40
41102;BME280;26845;50.190;19.178;2023-06-14T02:19:16;98576.77;;;9.80;73.46
41102;BME280;26845;50.190;19.178;2023-06-14T02:21:50;98568.77;;;9.82;73.54
41102;BME280;26845;50.190;19.178;2023-06-14T02:24:23;98569.98;;;9.84;73.76
41102;BME280;26845;50.190;19.178;2023-06-14T02:26:57;98566.98;;;9.87;73.91
41102;BME280;26845;50.190;19.178;2023-06-14T02:29:31;98567.88;;;9.93;73.92
41102;BME280;26845;50.190;19.178;2023-06-14T02:32:36;98568.53;;;9.98;74.24
41102;BME280;26845;50.190;19.178;2023-06-14T02:35:42;98572.55;;;9.99;74.31
41102;BME280;26845;50.190;19.178;2023-06-14T02:38:48;98573.07;;;10.03;74.44
41102;BME280;26845;50.190;19.178;2023-06-14T02:41:57;98566.26;;;10.06;74.71
41102;BME280;26845;50.190;19.178;2023-06-14T02:45:02;98562.05;;;10.11;74.87
41102;BME280;26845;50.190;19.178;2023-06-14T02:48:08;98562.55;;;10.18;75.03
41102;BME280;26845;50.190;19.178;2023-06-14T02:51:14;98561.73;;;10.22;75.14
41102;BME280;26845;50.190;19.178;2023-06-14T02:54:20;98559.80;;;10.27;75.37
41102;BME280;26845;50.190;19.178;2023-06-14T02:57:26;98560.05;;;10.34;75.55
41102;BME280;26845;50.190;19.178;2023-06-14T03:00:32;98556.02;;;10.42;75.68
41102;BME280;26845;50.190;19.178;2023-06-14T03:03:38;98553.58;;;10.49;76.06
41102;BME280;26845;50.190;19.178;2023-06-14T03:06:44;98551.41;;;10.55;76.14
41102;BME280;26845;50.190;19.178;2023-06-14T03:09:49;98555.80;;;10.61;76.24
41102;BME280;26845;50.190;19.178;2023-06-14T03:12:55;98550.73;;;10.61;76.30
41102;BME280;26845;50.190;19.178;2023-06-14T03:16:07;98550.35;;;10.66;76.23
41102;BME280;26845;50.190;19.178;2023-06-14T03:19:13;98551.13;;;10.70;76.23
41102;BME280;26845;50.190;19.178;2023-06-14T03:22:18;98548.54;;;10.71;76.45
41102;BME280;26845;50.190;19.178;2023-06-14T03:25:24;98548.60;;;10.74;76.58
41102;BME280;26845;50.190;19.178;2023-06-14T03:28:30;98549.95;;;10.78;76.65
41102;BME280;26845;50.190;19.178;2023-06-14T03:31:41;98552.31;;;10.82;76.74
41102;BME280;26845;50.190;19.178;2023-06-14T03:34:51;98553.77;;;10.93;76.88
41102;BME280;26845;50.190;19.178;2023-06-14T03:37:57;98552.05;;;11.04;77.03
41102;BME280;26845;50.190;19.178;2023-06-14T03:41:03;98554.09;;;11.15;77.08
41102;BME280;26845;50.190;19.178;2023-06-14T03:44:08;98551.92;;;11.25;77.29
41102;BME280;26845;50.190;19.178;2023-06-14T03:47:14;98561.84;;;11.35;77.27
41102;BME280;26845;50.190;19.178;2023-06-14T03:50:20;98559.90;;;11.43;77.34
41102;BME280;26845;50.190;19.178;2023-06-14T03:53:28;98559.23;;;11.52;77.24
41102;BME280;26845;50.190;19.178;2023-06-14T03:56:34;98561.44;;;11.58;77.36
41102;BME280;26845;50.190;19.178;2023-06-14T03:59:40;98560.36;;;11.62;77.47
41102;BME280;26845;50.190;19.178;2023-06-14T04:02:46;98558.70;;;11.68;77.74
41102;BME280;26845;50.190;19.178;2023-06-14T04:05:51;98557.33;;;11.77;77.95
41102;BME280;26845;50.190;19.178;2023-06-14T04:08:58;98556.65;;;11.84;78.05
41102;BME280;26845;50.190;19.178;2023-06-14T04:12:04;98563.96;;;11.89;78.20
41102;BME280;26845;50.190;19.178;2023-06-14T04:15:09;98563.61;;;11.94;78.41
41102;BME280;26845;50.190;19.178;2023-06-14T04:18:21;98563.02;;;11.97;78.68
41102;BME280;26845;50.190;19.178;2023-06-14T04:21:27;98562.98;;;12.02;78.82
41102;BME280;26845;50.190;19.178;2023-06-14T04:24:33;98562.90;;;12.13;78.97
41102;BME280;26845;50.190;19.178;2023-06-14T04:27:38;98565.80;;;12.20;79.01
41102;BME280;26845;50.190;19.178;2023-06-14T04:30:44;98569.15;;;12.27;79.03
41102;BME280;26845;50.190;19.178;2023-06-14T04:33:50;98570.08;;;12.32;79.16
41102;BME280;26845;50.190;19.178;2023-06-14T04:36:56;98568.45;;;12.31;79.23
41102;BME280;26845;50.190;19.178;2023-06-14T04:40:02;98569.83;;;12.36;79.44
41102;BME280;26845;50.190;19.178;2023-06-14T04:43:09;98567.60;;;12.46;79.47
41102;BME280;26845;50.190;19.178;2023-06-14T04:46:15;98565.30;;;12.57;79.62
41102;BME280;26845;50.190;19.178;2023-06-14T04:49:24;98560.63;;;12.66;79.53
41102;BME280;26845;50.190;19.178;2023-06-14T04:52:33;98559.17;;;12.75;79.60
41102;BME280;26845;50.190;19.178;2023-06-14T04:55:39;98561.08;;;12.75;79.49
41102;BME280;26845;50.190;19.178;2023-06-14T04:58:45;98559.23;;;12.81;79.83
41102;BME280;26845;50.190;19.178;2023-06-14T05:01:54;98560.91;;;12.89;79.80
41102;BME280;26845;50.190;19.178;2023-06-14T05:04:59;98568.44;;;12.94;79.92
41102;BME280;26845;50.190;19.178;2023-06-14T05:08:05;98570.70;;;12.99;79.91
41102;BME280;26845;50.190;19.178;2023-06-14T05:11:12;98574.55;;;13.08;80.03
41102;BME280;26845;50.190;19.178;2023-06-14T05:14:18;98576.27;;;13.13;80.15
41102;BME280;26845;50.190;19.178;2023-06-14T05:17:24;98576.30;;;13.14;80.06
41102;BME280;26845;50.190;19.178;2023-06-14T05:19:57;98580.45;;;13.18;80.43
41102;BME280;26845;50.190;19.178;2023-06-14T05:23:03;98582.25;;;13.27;80.31
41102;BME280;26845;50.190;19.178;2023-06-14T05:25:29;98580.06;;;13.30;80.18
41102;BME280;26845;50.190;19.178;2023-06-14T05:28:35;98582.61;;;13.36;80.29
41102;BME280;26845;50.190;19.178;2023-06-14T05:31:40;98587.53;;;13.44;80.32
41102;BME280;26845;50.190;19.178;2023-06-14T05:34:46;98586.16;;;13.50;80.40
41102;BME280;26845;50.190;19.178;2023-06-14T05:37:23;98591.56;;;13.54;80.35
41102;BME280;26845;50.190;19.178;2023-06-14T05:39:56;98588.82;;;13.55;80.29
41102;BME280;26845;50.190;19.178;2023-06-14T05:42:30;98591.40;;;13.60;80.55
41102;BME280;26845;50.190;19.178;2023-06-14T05:45:04;98590.17;;;13.63;80.42
41102;BME280;26845;50.190;19.178;2023-06-14T05:47:37;98591.36;;;13.65;80.45
41102;BME280;26845;50.190;19.178;2023-06-14T05:50:11;98591.64;;;13.66;80.52
41102;BME280;26845;50.190;19.178;2023-06-14T05:52:45;98594.22;;;13.67;80.44
41102;BME280;26845;50.190;19.178;2023-06-14T05:55:51;98596.81;;;13.72;80.66
41102;BME280;26845;50.190;19.178;2023-06-14T05:58:56;98596.08;;;13.74;80.49
41102;BME280;26845;50.190;19.178;2023-06-14T06:02:02;98597.58;;;13.76;80.43
41102;BME280;26845;50.190;19.178;2023-06-14T06:05:09;98598.17;;;13.75;80.54
41102;BME280;26845;50.190;19.178;2023-06-14T06:08:15;98596.86;;;13.79;80.53
41102;BME280;26845;50.190;19.178;2023-06-14T06:11:31;98593.98;;;13.87;80.77
41102;BME280;26845;50.190;19.178;2023-06-14T06:14:37;98595.41;;;13.95;80.75
41102;BME280;26845;50.190;19.178;2023-06-14T06:17:43;98594.95;;;13.98;80.58
41102;BME280;26845;50.190;19.178;2023-06-14T06:20:49;98590.90;;;14.06;80.73
41102;BME280;26845;50.190;19.178;2023-06-14T06:23:55;98595.16;;;14.13;80.52
41102;BME280;26845;50.190;19.178;2023-06-14T06:27:00;98598.30;;;14.21;80.47
41102;BME280;26845;50.190;19.178;2023-06-14T06:30:06;98596.59;;;14.23;80.52
41102;BME280;26845;50.190;19.178;2023-06-14T06:33:13;98599.38;;;14.22;80.60
41102;BME280;26845;50.190;19.178;2023-06-14T06:36:18;98599.95;;;14.20;80.51
41102;BME280;26845;50.190;19.178;2023-06-14T06:39:24;98602.48;;;14.14;80.67
41102;BME280;26845;50.190;19.178;2023-06-14T06:42:30;98606.83;;;14.13;80.88
41102;BME280;26845;50.190;19.178;2023-06-14T06:45:36;98611.39;;;14.21;81.14
41102;BME280;26845;50.190;19.178;2023-06-14T06:48:42;98607.73;;;14.28;81.18
41102;BME280;26845;50.190;19.178;2023-06-14T06:52:01;98612.53;;;14.33;81.09
41102;BME280;26845;50.190;19.178;2023-06-14T06:55:06;98619.27;;;14.38;81.05
41102;BME280;26845;50.190;19.178;2023-06-14T06:58:12;98619.34;;;14.33;80.91
41102;BME280;26845;50.190;19.178;2023-06-14T07:01:17;98617.45;;;14.29;80.93
41102;BME280;26845;50.190;19.178;2023-06-14T07:04:23;98617.04;;;14.20;80.95
41102;BME280;26845;50.190;19.178;2023-06-14T07:07:29;98620.29;;;14.22;80.98
41102;BME280;26845;50.190;19.178;2023-06-14T07:10:35;98625.20;;;14.18;81.12
41102;BME280;26845;50.190;19.178;2023-06-14T07:13:41;98627.49;;;14.20;81.24
41102;BME280;26845;50.190;19.178;2023-06-14T07:16:47;98633.45;;;14.17;81.22
41102;BME280;26845;50.190;19.178;2023-06-14T07:19:53;98633.91;;;14.09;81.23
41102;BME280;26845;50.190;19.178;2023-06-14T07:22:45;98637.61;;;14.12;81.38
41102;BME280;26845;50.190;19.178;2023-06-14T07:25:51;98635.15;;;14.15;81.50
41102;BME280;26845;50.190;19.178;2023-06-14T07:28:57;98637.64;;;14.22;81.71
41102;BME280;26845;50.190;19.178;2023-06-14T07:32:02;98636.38;;;14.25;81.56
41102;BME280;26845;50.190;19.178;2023-06-14T07:35:08;98644.50;;;14.36;81.72
41102;BME280;26845;50.190;19.178;2023-06-14T07:38:13;98647.83;;;14.44;81.47
41102;BME280;26845;50.190;19.178;2023-06-14T07:41:19;98650.15;;;14.49;81.45
41102;BME280;26845;50.190;19.178;2023-06-14T07:44:26;98654.27;;;14.46;81.11
41102;BME280;26845;50.190;19.178;2023-06-14T07:47:30;98658.30;;;14.42;81.24
41102;BME280;26845;50.190;19.178;2023-06-14T07:50:32;98659.96;;;14.42;81.37
41102;BME280;26845;50.190;19.178;2023-06-14T07:53:38;98662.48;;;14.36;81.25
41102;BME280;26845;50.190;19.178;2023-06-14T07:56:44;98666.41;;;14.16;80.98
41102;BME280;26845;50.190;19.178;2023-06-14T07:59:50;98668.89;;;14.05;81.10
41102;BME280;26845;50.190;19.178;2023-06-14T08:02:55;98670.58;;;14.08;81.39
41102;BME280;26845;50.190;19.178;2023-06-14T08:06:01;98671.24;;;14.13;81.36
41102;BME280;26845;50.190;19.178;2023-06-14T08:09:07;98669.23;;;14.14;81.51
41102;BME280;26845;50.190;19.178;2023-06-14T08:12:13;98665.80;;;14.08;81.53
41102;BME280;26845;50.190;19.178;2023-06-14T08:15:19;98659.08;;;14.03;81.69
41102;BME280;26845;50.190;19.178;2023-06-14T08:18:25;98658.95;;;14.02;81.90
41102;BME280;26845;50.190;19.178;2023-06-14T08:21:30;98660.94;;;14.04;81.96
41102;BME280;26845;50.190;19.178;2023-06-14T08:24:36;98657.06;;;14.10;82.00
41102;BME280;26845;50.190;19.178;2023-06-14T08:27:23;98662.09;;;14.20;82.16
41102;BME280;26845;50.190;19.178;2023-06-14T08:30:28;98664.21;;;14.33;81.96
41102;BME280;26845;50.190;19.178;2023-06-14T08:33:34;98659.84;;;14.34;81.83
41102;BME280;26845;50.190;19.178;2023-06-14T08:36:40;98663.09;;;14.42;81.85
41102;BME280;26845;50.190;19.178;2023-06-14T08:39:46;98666.25;;;14.48;81.85
41102;BME280;26845;50.190;19.178;2023-06-14T08:42:51;98664.55;;;14.45;81.60
41102;BME280;26845;50.190;19.178;2023-06-14T08:45:53;98669.13;;;14.54;81.85
41102;BME280;26845;50.190;19.178;2023-06-14T08:48:43;98671.17;;;14.62;81.56
41102;BME280;26845;50.190;19.178;2023-06-14T08:51:30;98673.64;;;14.67;81.35
41102;BME280;26845;50.190;19.178;2023-06-14T08:54:03;98676.73;;;14.68;81.21
41102;BME280;26845;50.190;19.178;2023-06-14T08:57:18;98678.95;;;14.77;81.38
41102;BME280;26845;50.190;19.178;2023-06-14T09:00:24;98685.84;;;14.85;81.33
41102;BME280;26845;50.190;19.178;2023-06-14T09:03:39;98685.91;;;14.94;81.27
41102;BME280;26845;50.190;19.178;2023-06-14T09:06:44;98690.81;;;14.90;81.19
41102;BME280;26845;50.190;19.178;2023-06-14T09:10:02;98694.30;;;14.94;81.23
41102;BME280;26845;50.190;19.178;2023-06-14T09:12:55;98697.33;;;14.98;81.33
41102;BME280;26845;50.190;19.178;2023-06-14T09:15:42;98696.80;;;14.96;81.06
41102;BME280;26845;50.190;19.178;2023-06-14T09:18:43;98697.15;;;14.91;81.01
41102;BME280;26845;50.190;19.178;2023-06-14T09:21:31;98700.09;;;14.92;80.94
41102;BME280;26845;50.190;19.178;2023-06-14T09:24:36;98699.09;;;14.91;80.89
41102;BME280;26845;50.190;19.178;2023-06-14T09:27:41;98697.58;;;14.96;81.20
41102;BME280;26845;50.190;19.178;2023-06-14T09:30:28;98699.93;;;15.02;81.34
41102;BME280;26845;50.190;19.178;2023-06-14T09:33:34;98702.81;;;15.04;81.48
41102;BME280;26845;50.190;19.178;2023-06-14T09:36:36;98700.16;;;15.06;82.12
41102;BME280;26845;50.190;19.178;2023-06-14T09:39:52;98702.52;;;15.12;82.72
41102;BME280;26845;50.190;19.178;2023-06-14T09:42:54;98700.89;;;15.19;82.94
41102;BME280;26845;50.190;19.178;2023-06-14T09:46:00;98701.45;;;15.21;82.50
41102;BME280;26845;50.190;19.178;2023-06-14T09:49:00;98703.56;;;15.13;82.76
41102;BME280;26845;50.190;19.178;2023-06-14T09:52:06;98705.73;;;15.08;82.90
41102;BME280;26845;50.190;19.178;2023-06-14T09:55:12;98706.50;;;15.10;83.10
41102;BME280;26845;50.190;19.178;2023-06-14T09:58:19;98702.15;;;15.12;83.44
41102;BME280;26845;50.190;19.178;2023-06-14T10:01:05;98701.73;;;15.15;83.58
41102;BME280;26845;50.190;19.178;2023-06-14T10:04:11;98701.23;;;15.17;83.51
41102;BME280;26845;50.190;19.178;2023-06-14T10:07:27;98703.01;;;15.20;83.60
41102;BME280;26845;50.190;19.178;2023-06-14T10:10:32;98700.06;;;15.28;83.78
41102;BME280;26845;50.190;19.178;2023-06-14T10:13:38;98697.43;;;15.33;83.80
41102;BME280;26845;50.190;19.178;2023-06-14T10:17:00;98697.91;;;15.41;84.02
41102;BME280;26845;50.190;19.178;2023-06-14T10:20:10;98699.55;;;15.55;83.77
41102;BME280;26845;50.190;19.178;2023-06-14T10:23:19;98699.54;;;15.69;83.94
41102;BME280;26845;50.190;19.178;2023-06-14T10:26:23;98699.34;;;15.79;83.83
41102;BME280;26845;50.190;19.178;2023-06-14T10:29:29;98697.86;;;15.82;83.44
41102;BME280;26845;50.190;19.178;2023-06-14T10:32:35;98691.27;;;15.89;83.93
41102;BME280;26845;50.190;19.178;2023-06-14T10:35:47;98695.33;;;15.97;84.19
41102;BME280;26845;50.190;19.178;2023-06-14T10:39:15;98693.30;;;16.15;84.58
41102;BME280;26845;50.190;19.178;2023-06-14T10:42:05;98697.83;;;16.25;83.95
41102;BME280;26845;50.190;19.178;2023-06-14T10:45:12;98693.21;;;16.32;83.93
41102;BME280;26845;50.190;19.178;2023-06-14T10:48:29;98696.33;;;16.37;83.99
41102;BME280;26845;50.190;19.178;2023-06-14T10:51:24;98692.49;;;16.46;84.34
41102;BME280;26845;50.190;19.178;2023-06-14T10:54:13;98686.05;;;16.67;84.82
41102;BME280;26845;50.190;19.178;2023-06-14T10:57:19;98686.62;;;16.87;84.62
41102;BME280;26845;50.190;19.178;2023-06-14T11:00:27;98686.04;;;16.96;84.41
41102;BME280;26845;50.190;19.178;2023-06-14T11:06:48;98679.88;;;17.09;84.02
41102;BME280;26845;50.190;19.178;2023-06-14T11:12:48;98673.02;;;17.38;84.46
41102;BME280;26845;50.190;19.178;2023-06-14T11:15:54;98669.09;;;17.34;83.53
41102;BME280;26845;50.190;19.178;2023-06-14T11:19:00;98672.80;;;17.38;83.93
41102;BME280;26845;50.190;19.178;2023-06-14T11:22:05;98665.50;;;17.46;83.75
41102;BME280;26845;50.190;19.178;2023-06-14T11:25:11;98661.59;;;17.49;83.06
41102;BME280;26845;50.190;19.178;2023-06-14T11:28:01;98661.55;;;17.76;83.90
41102;BME280;26845;50.190;19.178;2023-06-14T11:30:49;98662.40;;;17.92;83.23
41102;BME280;26845;50.190;19.178;2023-06-14T11:33:24;98661.32;;;17.95;82.61
41102;BME280;26845;50.190;19.178;2023-06-14T11:35:52;98661.91;;;17.92;81.89
41102;BME280;26845;50.190;19.178;2023-06-14T11:38:58;98665.08;;;17.90;82.16
41102;BME280;26845;50.190;19.178;2023-06-14T11:41:51;98665.05;;;17.89;81.68
41102;BME280;26845;50.190;19.178;2023-06-14T11:44:37;98661.90;;;17.92;81.32
41102;BME280;26845;50.190;19.178;2023-06-14T11:47:43;98660.38;;;18.12;81.76
41102;BME280;26845;50.190;19.178;2023-06-14T11:50:49;98658.42;;;18.42;81.71
41102;BME280;26845;50.190;19.178;2023-06-14T11:53:49;98656.02;;;18.65;81.05
41102;BME280;26845;50.190;19.178;2023-06-14T11:56:50;98651.26;;;19.09;80.91
41102;BME280;26845;50.190;19.178;2023-06-14T11:59:57;98646.96;;;19.50;80.79
41102;BME280;26845;50.190;19.178;2023-06-14T12:02:24;98646.05;;;19.69;79.52
41102;BME280;26845;50.190;19.178;2023-06-14T12:05:30;98643.63;;;19.73;79.28
41102;BME280;26845;50.190;19.178;2023-06-14T12:08:36;98640.61;;;19.77;78.53
41102;BME280;26845;50.190;19.178;2023-06-14T12:11:42;98642.70;;;19.76;78.29
41102;BME280;26845;50.190;19.178;2023-06-14T12:14:48;98635.98;;;19.58;77.11
41102;BME280;26845;50.190;19.178;2023-06-14T12:17:53;98636.77;;;19.36;77.48
41102;BME280;26845;50.190;19.178;2023-06-14T12:20:58;98634.17;;;19.23;76.72
41102;BME280;26845;50.190;19.178;2023-06-14T12:24:04;98637.18;;;19.05;76.52
41102;BME280;26845;50.190;19.178;2023-06-14T12:27:09;98633.99;;;19.07;77.07
41102;BME280;26845;50.190;19.178;2023-06-14T12:30:21;98628.27;;;19.22;76.57
41102;BME280;26845;50.190;19.178;2023-06-14T12:33:27;98627.55;;;19.33;76.01
41102;BME280;26845;50.190;19.178;2023-06-14T12:36:32;98628.18;;;19.43;76.11
41102;BME280;26845;50.190;19.178;2023-06-14T12:39:27;98625.35;;;19.47;75.74
41102;BME280;26845;50.190;19.178;2023-06-14T12:42:29;98622.77;;;19.63;75.90
41102;BME280;26845;50.190;19.178;2023-06-14T12:45:19;98626.14;;;19.74;75.00
41102;BME280;26845;50.190;19.178;2023-06-14T12:48:25;98625.09;;;19.73;74.69
41102;BME280;26845;50.190;19.178;2023-06-14T12:51:30;98622.63;;;19.81;74.75
41102;BME280;26845;50.190;19.178;2023-06-14T12:53:56;98617.46;;;19.88;74.36
41102;BME280;26845;50.190;19.178;2023-06-14T12:57:02;98615.36;;;19.86;74.06
41102;BME280;26845;50.190;19.178;2023-06-14T12:59:50;98619.92;;;19.78;73.32
41102;BME280;26845;50.190;19.178;2023-06-14T13:02:21;98619.05;;;19.73;73.78
41102;BME280;26845;50.190;19.178;2023-06-14T13:04:59;98619.74;;;19.71;73.24
41102;BME280;26845;50.190;19.178;2023-06-14T13:07:51;98618.57;;;19.73;73.41
41102;BME280;26845;50.190;19.178;2023-06-14T13:10:44;98618.00;;;19.79;72.64
41102;BME280;26845;50.190;19.178;2023-06-14T13:13:10;98613.54;;;19.83;73.23
41102;BME280;26845;50.190;19.178;2023-06-14T13:15:38;98612.06;;;19.94;73.25
41102;BME280;26845;50.190;19.178;2023-06-14T13:18:04;98608.83;;;20.12;73.49
41102;BME280;26845;50.190;19.178;2023-06-14T13:20:31;98611.90;;;20.14;71.87
41102;BME280;26845;50.190;19.178;2023-06-14T13:22:59;98613.07;;;20.11;71.88
41102;BME280;26845;50.190;19.178;2023-06-14T13:25:24;98613.50;;;20.12;72.19
41102;BME280;26845;50.190;19.178;2023-06-14T13:27:51;98612.04;;;20.18;71.74
41102;BME280;26845;50.190;19.178;2023-06-14T13:30:17;98617.45;;;20.13;71.53
41102;BME280;26845;50.190;19.178;2023-06-14T13:32:43;98612.21;;;20.13;71.81
41102;BME280;26845;50.190;19.178;2023-06-14T13:35:09;98607.20;;;20.19;71.64
41102;BME280;26845;50.190;19.178;2023-06-14T13:37:35;98611.24;;;20.43;71.23
41102;BME280;26845;50.190;19.178;2023-06-14T13:40:02;98605.77;;;20.56;70.60
41102;BME280;26845;50.190;19.178;2023-06-14T13:42:28;98604.64;;;20.64;70.28
41102;BME280;26845;50.190;19.178;2023-06-14T13:44:57;98606.65;;;20.73;70.15
41102;BME280;26845;50.190;19.178;2023-06-14T13:47:23;98608.21;;;20.94;69.70
41102;BME280;26845;50.190;19.178;2023-06-14T13:49:52;98609.74;;;21.16;69.14
41102;BME280;26845;50.190;19.178;2023-06-14T13:52:17;98607.38;;;21.35;69.56
41102;BME280;26845;50.190;19.178;2023-06-14T13:54:44;98603.19;;;21.60;69.26
41102;BME280;26845;50.190;19.178;2023-06-14T13:57:49;98602.59;;;21.84;69.08
41102;BME280;26845;50.190;19.178;2023-06-14T14:00:31;98602.95;;;21.77;67.49
41102;BME280;26845;50.190;19.178;2023-06-14T14:03:06;98602.61;;;21.59;67.54
41102;BME280;26845;50.190;19.178;2023-06-14T14:05:39;98599.52;;;21.71;68.02
41102;BME280;26845;50.190;19.178;2023-06-14T14:08:13;98602.36;;;21.72;67.51
41102;BME280;26845;50.190;19.178;2023-06-14T14:10:46;98605.20;;;21.59;66.80
41102;BME280;26845;50.190;19.178;2023-06-14T14:13:20;98607.85;;;21.43;66.74
41102;BME280;26845;50.190;19.178;2023-06-14T14:15:54;98606.96;;;21.33;67.09
41102;BME280;26845;50.190;19.178;2023-06-14T14:18:28;98604.40;;;21.26;67.05
41102;BME280;26845;50.190;19.178;2023-06-14T14:21:25;98607.32;;;21.16;66.98
41102;BME280;26845;50.190;19.178;2023-06-14T14:23:59;98608.22;;;20.97;66.84
41102;BME280;26845;50.190;19.178;2023-06-14T14:26:32;98609.27;;;20.77;66.60
41102;BME280;26845;50.190;19.178;2023-06-14T14:29:06;98602.64;;;20.58;66.33
41102;BME280;26845;50.190;19.178;2023-06-14T14:31:40;98605.93;;;20.66;66.79
41102;BME280;26845;50.190;19.178;2023-06-14T14:34:13;98606.36;;;20.86;66.73
41102;BME280;26845;50.190;19.178;2023-06-14T14:36:47;98606.45;;;21.19;67.10
41102;BME280;26845;50.190;19.178;2023-06-14T14:39:21;98606.45;;;21.50;66.20
41102;BME280;26845;50.190;19.178;2023-06-14T14:41:54;98602.33;;;21.64;66.13
41102;BME280;26845;50.190;19.178;2023-06-14T14:44:29;98604.15;;;21.75;65.81
41102;BME280;26845;50.190;19.178;2023-06-14T14:47:02;98602.36;;;21.89;65.39
41102;BME280;26845;50.190;19.178;2023-06-14T14:49:36;98601.20;;;22.05;65.16
41102;BME280;26845;50.190;19.178;2023-06-14T14:52:10;98604.77;;;22.23;64.61
41102;BME280;26845;50.190;19.178;2023-06-14T14:54:43;98605.78;;;22.14;63.32
41102;BME280;26845;50.190;19.178;2023-06-14T14:57:17;98598.98;;;21.95;63.43
41102;BME280;26845;50.190;19.178;2023-06-14T14:59:51;98600.71;;;22.03;63.33
41102;BME280;26845;50.190;19.178;2023-06-14T15:02:24;98604.61;;;22.23;63.39
41102;BME280;26845;50.190;19.178;2023-06-14T15:05:01;98602.63;;;22.40;63.29
41102;BME280;26845;50.190;19.178;2023-06-14T15:07:34;98602.44;;;22.57;62.90